KEB weather

Nanwalek Airport
Nanwalek, Alaska, United States

Public forecast

Using degrees Fahrenheit for public forecast. Weather courtesy of forecast.io.

METAR (pilot weather report)

Closest report is Seldovia Airport, 8.7 nm (16.0 km) NE. Retrieved 2019/07/22 06:53 UTC (34 minutes ago):

PASO 220653Z AUTO 00000KT 9SM SCT060 14/12 A3010 RMK AO2 SLP194 T01440117 TSNO

TAF (pilot weather forecast)

Closest forecast is Homer Airport, 22.3 nm (41.3 km) NE. Retrieved 2019/07/22 06:22 UTC (1 hour ago):

TAF PAHO 220520Z 2206/2306 VRB04KT P6SM SCT050 BKN200